sensor_id;sensor_type;location;lat;lon;timestamp;pressure;altitude;pressure_sealevel;temperature;humidity
68525;BME280;55524;51.380;13.372;2023-08-31T00:00:49;99619.16;;;15.50;100.00
68525;BME280;55524;51.380;13.372;2023-08-31T00:03:18;99620.84;;;15.51;100.00
68525;BME280;55524;51.380;13.372;2023-08-31T00:05:45;99620.75;;;15.53;100.00
68525;BME280;55524;51.380;13.372;2023-08-31T00:08:12;99627.56;;;15.44;100.00
68525;BME280;55524;51.380;13.372;2023-08-31T00:10:39;99627.28;;;15.48;100.00
68525;BME280;55524;51.380;13.372;2023-08-31T00:13:06;99628.00;;;15.50;100.00
68525;BME280;55524;51.380;13.372;2023-08-31T00:15:33;99641.75;;;15.44;100.00
68525;BME280;55524;51.380;13.372;2023-08-31T00:18:02;99652.19;;;15.35;100.00
68525;BME280;55524;51.380;13.372;2023-08-31T00:20:31;99664.53;;;15.23;100.00
68525;BME280;55524;51.380;13.372;2023-08-31T00:22:59;99672.41;;;15.12;100.00
68525;BME280;55524;51.380;13.372;2023-08-31T00:25:26;99654.22;;;15.06;100.00
68525;BME280;55524;51.380;13.372;2023-08-31T00:27:52;99658.97;;;15.00;100.00
68525;BME280;55524;51.380;13.372;2023-08-31T00:30:19;99660.72;;;15.02;100.00
68525;BME280;55524;51.380;13.372;2023-08-31T00:32:46;99663.03;;;14.93;100.00
68525;BME280;55524;51.380;13.372;2023-08-31T00:35:16;99673.56;;;14.95;100.00
68525;BME280;55524;51.380;13.372;2023-08-31T00:37:43;99661.75;;;14.86;100.00
68525;BME280;55524;51.380;13.372;2023-08-31T00:40:10;99648.34;;;14.88;100.00
68525;BME280;55524;51.380;13.372;2023-08-31T00:42:40;99647.47;;;14.87;100.00
68525;BME280;55524;51.380;13.372;2023-08-31T00:45:06;99648.13;;;14.78;100.00
68525;BME280;55524;51.380;13.372;2023-08-31T00:47:33;99646.63;;;14.74;100.00
68525;BME280;55524;51.380;13.372;2023-08-31T00:50:00;99630.75;;;14.72;100.00
68525;BME280;55524;51.380;13.372;2023-08-31T00:52:26;99644.47;;;14.66;100.00
68525;BME280;55524;51.380;13.372;2023-08-31T00:54:53;99646.59;;;14.61;100.00
68525;BME280;55524;51.380;13.372;2023-08-31T00:57:20;99642.63;;;14.54;100.00
68525;BME280;55524;51.380;13.372;2023-08-31T00:59:46;99648.03;;;14.52;100.00
68525;BME280;55524;51.380;13.372;2023-08-31T01:05:13;99651.66;;;14.51;100.00
68525;BME280;55524;51.380;13.372;2023-08-31T01:10:43;99649.59;;;14.42;100.00
68525;BME280;55524;51.380;13.372;2023-08-31T01:13:14;99653.09;;;14.43;100.00
68525;BME280;55524;51.380;13.372;2023-08-31T01:15:45;99654.13;;;14.40;100.00
68525;BME280;55524;51.380;13.372;2023-08-31T01:18:15;99649.06;;;14.37;100.00
68525;BME280;55524;51.380;13.372;2023-08-31T01:20:58;99656.44;;;14.32;100.00
68525;BME280;55524;51.380;13.372;2023-08-31T01:26:13;99653.91;;;14.31;100.00
68525;BME280;55524;51.380;13.372;2023-08-31T01:28:40;99668.53;;;14.23;100.00
68525;BME280;55524;51.380;13.372;2023-08-31T01:31:06;99669.59;;;14.21;100.00
68525;BME280;55524;51.380;13.372;2023-08-31T01:33:33;99666.00;;;14.22;100.00
68525;BME280;55524;51.380;13.372;2023-08-31T01:36:00;99664.94;;;14.24;100.00
68525;BME280;55524;51.380;13.372;2023-08-31T01:38:31;99672.25;;;14.21;100.00
68525;BME280;55524;51.380;13.372;2023-08-31T01:41:05;99676.91;;;14.17;100.00
68525;BME280;55524;51.380;13.372;2023-08-31T01:43:33;99678.72;;;14.17;100.00
68525;BME280;55524;51.380;13.372;2023-08-31T01:46:00;99687.94;;;14.11;100.00
68525;BME280;55524;51.380;13.372;2023-08-31T01:48:26;99688.06;;;14.10;100.00
68525;BME280;55524;51.380;13.372;2023-08-31T01:50:53;99688.72;;;13.99;100.00
68525;BME280;55524;51.380;13.372;2023-08-31T01:53:19;99696.78;;;13.97;100.00
68525;BME280;55524;51.380;13.372;2023-08-31T01:55:45;99709.69;;;13.89;100.00
68525;BME280;55524;51.380;13.372;2023-08-31T01:58:11;99721.28;;;13.88;100.00
68525;BME280;55524;51.380;13.372;2023-08-31T02:00:38;99726.59;;;13.88;100.00
68525;BME280;55524;51.380;13.372;2023-08-31T02:03:04;99727.84;;;13.83;100.00
68525;BME280;55524;51.380;13.372;2023-08-31T02:05:32;99729.53;;;13.84;100.00
68525;BME280;55524;51.380;13.372;2023-08-31T02:07:58;99724.22;;;13.84;100.00
68525;BME280;55524;51.380;13.372;2023-08-31T02:10:24;99726.50;;;13.75;100.00
68525;BME280;55524;51.380;13.372;2023-08-31T02:12:52;99727.34;;;13.76;100.00
68525;BME280;55524;51.380;13.372;2023-08-31T02:15:18;99733.69;;;13.73;100.00
68525;BME280;55524;51.380;13.372;2023-08-31T02:17:44;99728.13;;;13.78;100.00
68525;BME280;55524;51.380;13.372;2023-08-31T02:20:11;99718.25;;;13.80;100.00
68525;BME280;55524;51.380;13.372;2023-08-31T02:22:40;99734.75;;;13.71;100.00
68525;BME280;55524;51.380;13.372;2023-08-31T02:25:06;99737.59;;;13.68;100.00
68525;BME280;55524;51.380;13.372;2023-08-31T02:27:32;99731.16;;;13.72;100.00
68525;BME280;55524;51.380;13.372;2023-08-31T02:29:59;99719.88;;;13.68;100.00
68525;BME280;55524;51.380;13.372;2023-08-31T02:32:25;99714.84;;;13.64;100.00
68525;BME280;55524;51.380;13.372;2023-08-31T02:34:51;99714.28;;;13.59;100.00
68525;BME280;55524;51.380;13.372;2023-08-31T02:37:17;99724.41;;;13.52;100.00
68525;BME280;55524;51.380;13.372;2023-08-31T02:39:44;99727.81;;;13.54;100.00
68525;BME280;55524;51.380;13.372;2023-08-31T02:42:10;99736.16;;;13.48;100.00
68525;BME280;55524;51.380;13.372;2023-08-31T02:44:36;99732.84;;;13.44;100.00
68525;BME280;55524;51.380;13.372;2023-08-31T02:47:03;99736.44;;;13.43;100.00
68525;BME280;55524;51.380;13.372;2023-08-31T02:49:29;99731.22;;;13.42;100.00
68525;BME280;55524;51.380;13.372;2023-08-31T02:51:55;99744.03;;;13.35;100.00
68525;BME280;55524;51.380;13.372;2023-08-31T02:54:21;99743.81;;;13.38;100.00
68525;BME280;55524;51.380;13.372;2023-08-31T02:56:48;99741.44;;;13.34;100.00
68525;BME280;55524;51.380;13.372;2023-08-31T02:59:14;99748.72;;;13.30;100.00
68525;BME280;55524;51.380;13.372;2023-08-31T03:01:40;99750.50;;;13.15;100.00
68525;BME280;55524;51.380;13.372;2023-08-31T03:04:06;99756.06;;;13.11;100.00
68525;BME280;55524;51.380;13.372;2023-08-31T03:06:33;99757.09;;;13.08;100.00
68525;BME280;55524;51.380;13.372;2023-08-31T03:09:00;99767.97;;;13.03;100.00
68525;BME280;55524;51.380;13.372;2023-08-31T03:11:27;99759.50;;;12.97;100.00
68525;BME280;55524;51.380;13.372;2023-08-31T03:13:53;99767.91;;;12.89;100.00
68525;BME280;55524;51.380;13.372;2023-08-31T03:16:20;99771.09;;;12.80;100.00
68525;BME280;55524;51.380;13.372;2023-08-31T03:18:46;99771.00;;;12.82;100.00
68525;BME280;55524;51.380;13.372;2023-08-31T03:21:12;99762.31;;;12.79;100.00
68525;BME280;55524;51.380;13.372;2023-08-31T03:23:39;99762.31;;;12.79;100.00
68525;BME280;55524;51.380;13.372;2023-08-31T03:26:08;99755.09;;;12.82;100.00
68525;BME280;55524;51.380;13.372;2023-08-31T03:28:35;99755.03;;;12.83;100.00
68525;BME280;55524;51.380;13.372;2023-08-31T03:31:01;99752.53;;;12.80;100.00
68525;BME280;55524;51.380;13.372;2023-08-31T03:33:28;99761.44;;;12.79;100.00
68525;BME280;55524;51.380;13.372;2023-08-31T03:36:01;99770.31;;;12.78;100.00
68525;BME280;55524;51.380;13.372;2023-08-31T03:38:28;99777.69;;;12.73;100.00
68525;BME280;55524;51.380;13.372;2023-08-31T03:40:55;99781.81;;;12.63;100.00
68525;BME280;55524;51.380;13.372;2023-08-31T03:43:22;99784.38;;;12.64;100.00
68525;BME280;55524;51.380;13.372;2023-08-31T03:45:48;99782.69;;;12.63;100.00
68525;BME280;55524;51.380;13.372;2023-08-31T03:48:18;99782.84;;;12.60;100.00
68525;BME280;55524;51.380;13.372;2023-08-31T03:50:44;99781.22;;;12.58;100.00
68525;BME280;55524;51.380;13.372;2023-08-31T03:53:10;99785.56;;;12.59;100.00
68525;BME280;55524;51.380;13.372;2023-08-31T03:55:37;99787.47;;;12.57;100.00
68525;BME280;55524;51.380;13.372;2023-08-31T03:58:03;99786.69;;;12.54;100.00
68525;BME280;55524;51.380;13.372;2023-08-31T04:00:29;99794.72;;;12.53;100.00
68525;BME280;55524;51.380;13.372;2023-08-31T04:02:56;99787.53;;;12.55;100.00
68525;BME280;55524;51.380;13.372;2023-08-31T04:05:23;99788.47;;;12.54;100.00
68525;BME280;55524;51.380;13.372;2023-08-31T04:07:49;99791.66;;;12.45;100.00
68525;BME280;55524;51.380;13.372;2023-08-31T04:10:15;99786.34;;;12.45;100.00
68525;BME280;55524;51.380;13.372;2023-08-31T04:12:41;99801.72;;;12.38;100.00
68525;BME280;55524;51.380;13.372;2023-08-31T04:15:09;99796.53;;;12.37;100.00
68525;BME280;55524;51.380;13.372;2023-08-31T04:17:35;99796.53;;;12.37;100.00
68525;BME280;55524;51.380;13.372;2023-08-31T04:20:02;99795.69;;;12.36;100.00
68525;BME280;55524;51.380;13.372;2023-08-31T04:22:30;99797.53;;;12.34;100.00
68525;BME280;55524;51.380;13.372;2023-08-31T04:24:56;99800.97;;;12.36;100.00
68525;BME280;55524;51.380;13.372;2023-08-31T04:27:22;99806.28;;;12.36;100.00
68525;BME280;55524;51.380;13.372;2023-08-31T04:29:48;99807.53;;;12.29;100.00
68525;BME280;55524;51.380;13.372;2023-08-31T04:32:15;99808.66;;;12.25;100.00
68525;BME280;55524;51.380;13.372;2023-08-31T04:34:41;99806.69;;;12.28;100.00
68525;BME280;55524;51.380;13.372;2023-08-31T04:37:07;99807.44;;;12.30;100.00
68525;BME280;55524;51.380;13.372;2023-08-31T04:39:33;99813.44;;;12.34;100.00
68525;BME280;55524;51.380;13.372;2023-08-31T04:41:59;99815.31;;;12.32;100.00
68525;BME280;55524;51.380;13.372;2023-08-31T04:44:26;99817.72;;;12.37;100.00
68525;BME280;55524;51.380;13.372;2023-08-31T04:46:52;99821.91;;;12.41;100.00
68525;BME280;55524;51.380;13.372;2023-08-31T04:49:18;99819.78;;;12.47;100.00
68525;BME280;55524;51.380;13.372;2023-08-31T04:51:45;99823.28;;;12.48;100.00
68525;BME280;55524;51.380;13.372;2023-08-31T04:54:12;99828.16;;;12.55;100.00
68525;BME280;55524;51.380;13.372;2023-08-31T04:56:38;99825.59;;;12.54;100.00
68525;BME280;55524;51.380;13.372;2023-08-31T04:59:05;99831.31;;;12.62;100.00
68525;BME280;55524;51.380;13.372;2023-08-31T05:01:31;99829.19;;;12.69;100.00
68525;BME280;55524;51.380;13.372;2023-08-31T05:03:57;99829.94;;;12.71;100.00
68525;BME280;55524;51.380;13.372;2023-08-31T05:06:24;99833.91;;;12.79;100.00
68525;BME280;55524;51.380;13.372;2023-08-31T05:08:51;99841.50;;;12.86;100.00
68525;BME280;55524;51.380;13.372;2023-08-31T05:11:17;99844.25;;;12.84;100.00
68525;BME280;55524;51.380;13.372;2023-08-31T05:13:43;99838.78;;;12.87;100.00
68525;BME280;55524;51.380;13.372;2023-08-31T05:16:10;99848.25;;;12.91;100.00
68525;BME280;55524;51.380;13.372;2023-08-31T05:18:37;99849.78;;;12.95;100.00
68525;BME280;55524;51.380;13.372;2023-08-31T05:21:04;99851.22;;;13.01;100.00
68525;BME280;55524;51.380;13.372;2023-08-31T05:23:30;99852.88;;;13.03;100.00
68525;BME280;55524;51.380;13.372;2023-08-31T05:25:57;99862.53;;;13.04;100.00
68525;BME280;55524;51.380;13.372;2023-08-31T05:28:23;99869.19;;;13.12;100.00
68525;BME280;55524;51.380;13.372;2023-08-31T05:30:51;99873.97;;;13.21;100.00
68525;BME280;55524;51.380;13.372;2023-08-31T05:33:20;99874.91;;;13.20;100.00
68525;BME280;55524;51.380;13.372;2023-08-31T05:35:51;99871.06;;;13.25;100.00
68525;BME280;55524;51.380;13.372;2023-08-31T05:38:18;99881.41;;;13.30;100.00
68525;BME280;55524;51.380;13.372;2023-08-31T05:40:44;99887.41;;;13.34;100.00
68525;BME280;55524;51.380;13.372;2023-08-31T05:43:15;99888.25;;;13.34;100.00
68525;BME280;55524;51.380;13.372;2023-08-31T05:45:42;99886.91;;;13.43;100.00
68525;BME280;55524;51.380;13.372;2023-08-31T05:48:08;99898.09;;;13.48;100.00
68525;BME280;55524;51.380;13.372;2023-08-31T05:50:35;99891.75;;;13.50;100.00
68525;BME280;55524;51.380;13.372;2023-08-31T05:53:04;99893.28;;;13.55;100.00
68525;BME280;55524;51.380;13.372;2023-08-31T05:55:31;99892.91;;;13.61;100.00
68525;BME280;55524;51.380;13.372;2023-08-31T05:57:58;99890.66;;;13.69;100.00
68525;BME280;55524;51.380;13.372;2023-08-31T06:00:25;99887.00;;;13.86;100.00
68525;BME280;55524;51.380;13.372;2023-08-31T06:02:51;99888.16;;;13.96;100.00
68525;BME280;55524;51.380;13.372;2023-08-31T06:05:17;99885.16;;;14.16;100.00
68525;BME280;55524;51.380;13.372;2023-08-31T06:07:44;99882.19;;;14.21;100.00
68525;BME280;55524;51.380;13.372;2023-08-31T06:10:11;99884.38;;;14.28;100.00
68525;BME280;55524;51.380;13.372;2023-08-31T06:12:37;99884.88;;;14.35;100.00
68525;BME280;55524;51.380;13.372;2023-08-31T06:15:04;99884.28;;;14.44;100.00
68525;BME280;55524;51.380;13.372;2023-08-31T06:17:30;99891.91;;;14.65;100.00
68525;BME280;55524;51.380;13.372;2023-08-31T06:19:56;99886.22;;;14.71;100.00
68525;BME280;55524;51.380;13.372;2023-08-31T06:22:23;99888.84;;;14.85;100.00
68525;BME280;55524;51.380;13.372;2023-08-31T06:24:50;99892.00;;;14.78;100.00
68525;BME280;55524;51.380;13.372;2023-08-31T06:27:18;99899.69;;;14.82;100.00
68525;BME280;55524;51.380;13.372;2023-08-31T06:29:44;99901.56;;;14.80;100.00
68525;BME280;55524;51.380;13.372;2023-08-31T06:32:11;99898.91;;;14.80;100.00
68525;BME280;55524;51.380;13.372;2023-08-31T06:34:37;99901.84;;;14.90;100.00
68525;BME280;55524;51.380;13.372;2023-08-31T06:37:03;99899.88;;;14.79;100.00
68525;BME280;55524;51.380;13.372;2023-08-31T06:39:29;99902.16;;;14.71;100.00
68525;BME280;55524;51.380;13.372;2023-08-31T06:41:56;99902.28;;;14.69;100.00
68525;BME280;55524;51.380;13.372;2023-08-31T06:44:22;99911.00;;;14.71;100.00
68525;BME280;55524;51.380;13.372;2023-08-31T06:46:48;99914.88;;;14.80;100.00
68525;BME280;55524;51.380;13.372;2023-08-31T06:49:15;99915.91;;;14.92;100.00
68525;BME280;55524;51.380;13.372;2023-08-31T06:51:41;99908.00;;;15.05;100.00
68525;BME280;55524;51.380;13.372;2023-08-31T06:54:07;99909.06;;;15.29;100.00
68525;BME280;55524;51.380;13.372;2023-08-31T06:56:34;99891.22;;;15.44;100.00
68525;BME280;55524;51.380;13.372;2023-08-31T06:59:00;99900.97;;;15.31;100.00
68525;BME280;55524;51.380;13.372;2023-08-31T07:01:27;99912.88;;;15.25;100.00
68525;BME280;55524;51.380;13.372;2023-08-31T07:03:54;99912.72;;;15.14;100.00
68525;BME280;55524;51.380;13.372;2023-08-31T07:06:20;99902.94;;;15.14;100.00
68525;BME280;55524;51.380;13.372;2023-08-31T07:08:47;99908.31;;;15.27;100.00
68525;BME280;55524;51.380;13.372;2023-08-31T07:11:14;99901.25;;;15.40;100.00
68525;BME280;55524;51.380;13.372;2023-08-31T07:13:41;99901.94;;;15.30;100.00
68525;BME280;55524;51.380;13.372;2023-08-31T07:16:07;99905.34;;;15.32;100.00
68525;BME280;55524;51.380;13.372;2023-08-31T07:18:34;99889.13;;;15.62;100.00
68525;BME280;55524;51.380;13.372;2023-08-31T07:21:01;99897.72;;;15.80;100.00
68525;BME280;55524;51.380;13.372;2023-08-31T07:23:27;99897.13;;;16.02;100.00
68525;BME280;55524;51.380;13.372;2023-08-31T07:25:56;99876.00;;;16.24;100.00
68525;BME280;55524;51.380;13.372;2023-08-31T07:28:23;99876.19;;;16.46;100.00
68525;BME280;55524;51.380;13.372;2023-08-31T07:30:59;99868.56;;;16.66;98.40
68525;BME280;55524;51.380;13.372;2023-08-31T07:33:26;99871.91;;;16.57;96.82
68525;BME280;55524;51.380;13.372;2023-08-31T07:35:52;99866.81;;;17.03;93.72
68525;BME280;55524;51.380;13.372;2023-08-31T07:38:18;99868.16;;;16.72;92.74
68525;BME280;55524;51.380;13.372;2023-08-31T07:40:44;99885.13;;;16.58;93.24
68525;BME280;55524;51.380;13.372;2023-08-31T07:43:11;99865.00;;;17.04;90.93
68525;BME280;55524;51.380;13.372;2023-08-31T07:45:37;99848.84;;;17.29;86.77
68525;BME280;55524;51.380;13.372;2023-08-31T07:48:03;99839.34;;;17.60;83.53
68525;BME280;55524;51.380;13.372;2023-08-31T07:50:31;99818.72;;;17.62;80.03
68525;BME280;55524;51.380;13.372;2023-08-31T07:52:57;99830.09;;;17.88;79.37
68525;BME280;55524;51.380;13.372;2023-08-31T07:55:23;99802.66;;;17.98;74.51
68525;BME280;55524;51.380;13.372;2023-08-31T07:57:49;99817.84;;;17.51;76.21
68525;BME280;55524;51.380;13.372;2023-08-31T08:00:16;99841.56;;;17.31;79.47
68525;BME280;55524;51.380;13.372;2023-08-31T08:02:42;99841.06;;;17.61;78.94
68525;BME280;55524;51.380;13.372;2023-08-31T08:05:08;99845.06;;;17.56;79.47
68525;BME280;55524;51.380;13.372;2023-08-31T08:07:35;99845.91;;;17.91;78.48
68525;BME280;55524;51.380;13.372;2023-08-31T08:10:01;99840.78;;;17.88;77.31
68525;BME280;55524;51.380;13.372;2023-08-31T08:12:36;99864.88;;;17.29;80.78
68525;BME280;55524;51.380;13.372;2023-08-31T08:15:02;99873.91;;;16.91;82.10
68525;BME280;55524;51.380;13.372;2023-08-31T08:17:29;99891.22;;;16.73;83.19
68525;BME280;55524;51.380;13.372;2023-08-31T08:19:55;99889.84;;;16.80;83.73
68525;BME280;55524;51.380;13.372;2023-08-31T08:22:21;99885.38;;;17.05;82.41
68525;BME280;55524;51.380;13.372;2023-08-31T08:24:47;99872.88;;;17.29;79.03
68525;BME280;55524;51.380;13.372;2023-08-31T08:27:13;99881.16;;;17.13;80.93
68525;BME280;55524;51.380;13.372;2023-08-31T08:29:40;99887.91;;;16.69;81.12
68525;BME280;55524;51.380;13.372;2023-08-31T08:32:06;99887.38;;;16.64;81.32
68525;BME280;55524;51.380;13.372;2023-08-31T08:34:34;99880.44;;;16.75;80.02
68525;BME280;55524;51.380;13.372;2023-08-31T08:37:01;99843.56;;;17.76;73.81
68525;BME280;55524;51.380;13.372;2023-08-31T08:39:27;99822.34;;;17.61;71.41
68525;BME280;55524;51.380;13.372;2023-08-31T08:41:54;99801.56;;;18.11;68.38
68525;BME280;55524;51.380;13.372;2023-08-31T08:44:25;99795.56;;;18.53;66.77
68525;BME280;55524;51.380;13.372;2023-08-31T08:46:53;99789.44;;;18.84;64.28
68525;BME280;55524;51.380;13.372;2023-08-31T08:49:22;99785.28;;;18.26;64.48
68525;BME280;55524;51.380;13.372;2023-08-31T08:51:50;99798.03;;;18.33;64.79
68525;BME280;55524;51.380;13.372;2023-08-31T08:54:22;99793.63;;;18.55;65.12
68525;BME280;55524;51.380;13.372;2023-08-31T08:56:48;99795.59;;;17.97;65.93
68525;BME280;55524;51.380;13.372;2023-08-31T08:59:14;99812.75;;;17.94;67.78
68525;BME280;55524;51.380;13.372;2023-08-31T09:01:41;99811.19;;;17.67;68.29
68525;BME280;55524;51.380;13.372;2023-08-31T09:04:09;99835.75;;;17.37;70.69
68525;BME280;55524;51.380;13.372;2023-08-31T09:06:36;99835.63;;;17.04;70.95
68525;BME280;55524;51.380;13.372;2023-08-31T09:09:02;99843.63;;;17.04;70.32
68525;BME280;55524;51.380;13.372;2023-08-31T09:11:30;99844.75;;;16.88;70.60
68525;BME280;55524;51.380;13.372;2023-08-31T09:13:57;99841.50;;;17.79;68.84
68525;BME280;55524;51.380;13.372;2023-08-31T09:16:28;99804.94;;;18.47;64.66
68525;BME280;55524;51.380;13.372;2023-08-31T09:18:56;99790.25;;;18.96;63.19
68525;BME280;55524;51.380;13.372;2023-08-31T09:21:35;99778.78;;;19.05;61.24
68525;BME280;55524;51.380;13.372;2023-08-31T09:24:02;99796.69;;;18.28;63.48
68525;BME280;55524;51.380;13.372;2023-08-31T09:26:28;99814.19;;;17.87;65.36
68525;BME280;55524;51.380;13.372;2023-08-31T09:29:00;99833.78;;;17.63;68.29
68525;BME280;55524;51.380;13.372;2023-08-31T09:31:30;99843.84;;;17.60;68.79
68525;BME280;55524;51.380;13.372;2023-08-31T09:33:57;99850.50;;;17.19;68.87
68525;BME280;55524;51.380;13.372;2023-08-31T09:36:23;99842.53;;;17.06;67.89
68525;BME280;55524;51.380;13.372;2023-08-31T09:38:49;99842.53;;;17.06;68.46
68525;BME280;55524;51.380;13.372;2023-08-31T09:41:16;99834.75;;;17.62;65.80
68525;BME280;55524;51.380;13.372;2023-08-31T09:43:43;99817.81;;;17.39;64.85
68525;BME280;55524;51.380;13.372;2023-08-31T09:46:09;99837.47;;;17.38;65.86
68525;BME280;55524;51.380;13.372;2023-08-31T09:48:41;99840.56;;;18.03;65.49
68525;BME280;55524;51.380;13.372;2023-08-31T09:51:09;99804.09;;;19.12;61.06
68525;BME280;55524;51.380;13.372;2023-08-31T09:53:37;99781.50;;;19.47;59.12
68525;BME280;55524;51.380;13.372;2023-08-31T09:56:06;99779.56;;;19.70;58.36
68525;BME280;55524;51.380;13.372;2023-08-31T09:58:33;99793.31;;;18.91;59.12
68525;BME280;55524;51.380;13.372;2023-08-31T10:01:00;99814.81;;;18.47;61.35
68525;BME280;55524;51.380;13.372;2023-08-31T10:03:27;99811.38;;;18.44;61.59
68525;BME280;55524;51.380;13.372;2023-08-31T10:05:54;99841.56;;;18.47;64.30
68525;BME280;55524;51.380;13.372;2023-08-31T10:08:21;99848.09;;;17.86;66.69
68525;BME280;55524;51.380;13.372;2023-08-31T10:10:48;99867.69;;;17.63;68.05
68525;BME280;55524;51.380;13.372;2023-08-31T10:13:14;99880.22;;;17.74;69.40
68525;BME280;55524;51.380;13.372;2023-08-31T10:15:43;99873.75;;;17.65;68.72
68525;BME280;55524;51.380;13.372;2023-08-31T10:18:10;99880.84;;;17.77;68.82
68525;BME280;55524;51.380;13.372;2023-08-31T10:20:36;99885.19;;;17.67;69.10
68525;BME280;55524;51.380;13.372;2023-08-31T10:23:07;99899.50;;;17.31;71.57
68525;BME280;55524;51.380;13.372;2023-08-31T10:28:23;99905.06;;;17.28;71.61
68525;BME280;55524;51.380;13.372;2023-08-31T10:31:15;99896.53;;;17.23;69.58
68525;BME280;55524;51.380;13.372;2023-08-31T10:33:44;99897.38;;;17.23;68.85
68525;BME280;55524;51.380;13.372;2023-08-31T10:36:19;99909.69;;;17.13;70.06
68525;BME280;55524;51.380;13.372;2023-08-31T10:39:13;99954.41;;;16.85;75.55
68525;BME280;55524;51.380;13.372;2023-08-31T10:41:39;99963.16;;;16.75;77.64
68525;BME280;55524;51.380;13.372;2023-08-31T10:44:22;99989.50;;;16.54;80.65
68525;BME280;55524;51.380;13.372;2023-08-31T10:46:50;100022.25;;;16.30;88.86
68525;BME280;55524;51.380;13.372;2023-08-31T10:49:19;100083.66;;;15.89;100.00
68525;BME280;55524;51.380;13.372;2023-08-31T10:51:52;100099.91;;;15.29;100.00
68525;BME280;55524;51.380;13.372;2023-08-31T10:54:26;100102.66;;;14.98;100.00
68525;BME280;55524;51.380;13.372;2023-08-31T10:56:53;100082.19;;;14.70;100.00
68525;BME280;55524;51.380;13.372;2023-08-31T10:59:24;100077.66;;;15.15;100.00
68525;BME280;55524;51.380;13.372;2023-08-31T11:04:22;100028.47;;;16.56;100.00
68525;BME280;55524;51.380;13.372;2023-08-31T11:06:49;100002.34;;;17.00;100.00
68525;BME280;55524;51.380;13.372;2023-08-31T11:09:20;99967.31;;;16.91;91.65
68525;BME280;55524;51.380;13.372;2023-08-31T11:11:47;99974.28;;;17.55;93.04
68525;BME280;55524;51.380;13.372;2023-08-31T11:14:15;99920.53;;;17.94;81.92
68525;BME280;55524;51.380;13.372;2023-08-31T11:16:42;99886.16;;;17.90;74.55
68525;BME280;55524;51.380;13.372;2023-08-31T11:19:09;99892.66;;;18.43;75.28
68525;BME280;55524;51.380;13.372;2023-08-31T11:21:37;99854.06;;;18.91;68.22
68525;BME280;55524;51.380;13.372;2023-08-31T11:24:03;99844.50;;;19.21;67.01
68525;BME280;55524;51.380;13.372;2023-08-31T11:26:33;99828.03;;;19.25;64.91
68525;BME280;55524;51.380;13.372;2023-08-31T11:28:59;99807.56;;;19.24;63.74
68525;BME280;55524;51.380;13.372;2023-08-31T11:31:26;99825.16;;;19.38;64.42
68525;BME280;55524;51.380;13.372;2023-08-31T11:33:55;99828.06;;;19.46;64.41
68525;BME280;55524;51.380;13.372;2023-08-31T11:36:22;99831.47;;;19.90;63.87
68525;BME280;55524;51.380;13.372;2023-08-31T11:38:50;99792.03;;;19.60;59.28
68525;BME280;55524;51.380;13.372;2023-08-31T11:41:17;99809.22;;;19.99;61.77
68525;BME280;55524;51.380;13.372;2023-08-31T11:43:44;99816.91;;;20.04;61.48
68525;BME280;55524;51.380;13.372;2023-08-31T11:46:10;99817.00;;;20.02;62.04
68525;BME280;55524;51.380;13.372;2023-08-31T11:48:37;99821.13;;;20.37;63.32
68525;BME280;55524;51.380;13.372;2023-08-31T11:51:04;99782.97;;;20.33;59.07
68525;BME280;55524;51.380;13.372;2023-08-31T11:53:30;99810.28;;;20.48;61.48
68525;BME280;55524;51.380;13.372;2023-08-31T11:55:57;99797.53;;;20.71;59.55
68525;BME280;55524;51.380;13.372;2023-08-31T11:58:23;99781.69;;;20.78;57.57
68525;BME280;55524;51.380;13.372;2023-08-31T12:00:58;99786.94;;;20.89;58.36
68525;BME280;55524;51.380;13.372;2023-08-31T12:03:26;99791.75;;;21.05;57.56
68525;BME280;55524;51.380;13.372;2023-08-31T12:05:53;99796.13;;;20.67;58.67
68525;BME280;55524;51.380;13.372;2023-08-31T12:08:27;99779.59;;;21.20;56.80
68525;BME280;55524;51.380;13.372;2023-08-31T12:10:54;99803.22;;;20.87;60.06
68525;BME280;55524;51.380;13.372;2023-08-31T12:13:26;99807.38;;;20.30;59.40
68525;BME280;55524;51.380;13.372;2023-08-31T12:15:54;99803.16;;;20.68;59.61
68525;BME280;55524;51.380;13.372;2023-08-31T12:18:21;99781.59;;;21.38;56.65
68525;BME280;55524;51.380;13.372;2023-08-31T12:20:52;99765.34;;;21.39;55.55
68525;BME280;55524;51.380;13.372;2023-08-31T12:23:19;99771.84;;;21.36;56.16
68525;BME280;55524;51.380;13.372;2023-08-31T12:25:52;99772.13;;;21.43;55.88
68525;BME280;55524;51.380;13.372;2023-08-31T12:28:20;99749.59;;;21.64;54.26
68525;BME280;55524;51.380;13.372;2023-08-31T12:30:48;99760.09;;;21.47;55.12
68525;BME280;55524;51.380;13.372;2023-08-31T12:33:15;99770.19;;;20.16;56.23
68525;BME280;55524;51.380;13.372;2023-08-31T12:35:42;99775.06;;;20.32;56.83
68525;BME280;55524;51.380;13.372;2023-08-31T12:38:08;99752.03;;;21.08;55.45
68525;BME280;55524;51.380;13.372;2023-08-31T12:40:35;99745.94;;;21.16;56.25
68525;BME280;55524;51.380;13.372;2023-08-31T12:43:01;99738.31;;;21.31;55.61
68525;BME280;55524;51.380;13.372;2023-08-31T12:45:28;99747.75;;;20.86;55.06
68525;BME280;55524;51.380;13.372;2023-08-31T12:47:54;99752.28;;;21.54;55.81
68525;BME280;55524;51.380;13.372;2023-08-31T12:50:21;99756.97;;;21.13;55.48
68525;BME280;55524;51.380;13.372;2023-08-31T12:52:47;99764.75;;;21.06;56.34
68525;BME280;55524;51.380;13.372;2023-08-31T12:55:14;99770.16;;;21.92;56.35
68525;BME280;55524;51.380;13.372;2023-08-31T12:57:41;99736.56;;;22.06;53.20